sensor_id;sensor_type;location;lat;lon;timestamp;pressure;altitude;pressure_sealevel;temperature;humidity
63347;BME280;49472;49.880;8.650;2023-03-20T00:01:42;100291.25;;;13.15;nan
63347;BME280;49472;49.880;8.650;2023-03-20T00:04:09;100288.94;;;13.44;nan
63347;BME280;49472;49.880;8.650;2023-03-20T00:06:34;100290.50;;;13.24;nan
63347;BME280;49472;49.880;8.650;2023-03-20T00:09:00;100301.19;;;12.97;nan
63347;BME280;49472;49.880;8.650;2023-03-20T00:11:27;100291.31;;;13.25;nan
63347;BME280;49472;49.880;8.650;2023-03-20T00:14:12;100304.91;;;13.16;nan
63347;BME280;49472;49.880;8.650;2023-03-20T00:16:43;100302.31;;;13.27;nan
63347;BME280;49472;49.880;8.650;2023-03-20T00:19:16;100308.84;;;13.52;nan
63347;BME280;49472;49.880;8.650;2023-03-20T00:21:43;100300.28;;;13.42;nan
63347;BME280;49472;49.880;8.650;2023-03-20T00:24:10;100310.22;;;13.24;nan
63347;BME280;49472;49.880;8.650;2023-03-20T00:26:35;100302.72;;;13.43;nan
63347;BME280;49472;49.880;8.650;2023-03-20T00:29:04;100304.41;;;13.54;nan
63347;BME280;49472;49.880;8.650;2023-03-20T00:31:36;100320.97;;;13.29;nan
63347;BME280;49472;49.880;8.650;2023-03-20T00:34:09;100323.59;;;13.07;nan
63347;BME280;49472;49.880;8.650;2023-03-20T00:36:35;100317.00;;;13.36;nan
63347;BME280;49472;49.880;8.650;2023-03-20T00:39:01;100329.00;;;13.24;nan
63347;BME280;49472;49.880;8.650;2023-03-20T00:44:46;100316.50;;;13.42;nan
63347;BME280;49472;49.880;8.650;2023-03-20T00:47:18;100320.06;;;13.19;nan
63347;BME280;49472;49.880;8.650;2023-03-20T00:49:46;100323.47;;;13.08;nan
63347;BME280;49472;49.880;8.650;2023-03-20T00:52:12;100319.75;;;13.44;nan
63347;BME280;49472;49.880;8.650;2023-03-20T00:54:39;100320.66;;;13.11;nan
63347;BME280;49472;49.880;8.650;2023-03-20T00:57:12;100319.81;;;13.33;nan
63347;BME280;49472;49.880;8.650;2023-03-20T00:59:41;100334.09;;;13.03;nan
63347;BME280;49472;49.880;8.650;2023-03-20T01:02:11;100324.25;;;13.31;nan
63347;BME280;49472;49.880;8.650;2023-03-20T01:04:39;100329.41;;;13.09;nan
63347;BME280;49472;49.880;8.650;2023-03-20T01:07:08;100326.00;;;13.19;nan
63347;BME280;49472;49.880;8.650;2023-03-20T01:09:36;100327.19;;;13.04;nan
63347;BME280;49472;49.880;8.650;2023-03-20T01:12:02;100330.94;;;13.00;nan
63347;BME280;49472;49.880;8.650;2023-03-20T01:14:28;100321.47;;;13.12;nan
63347;BME280;49472;49.880;8.650;2023-03-20T01:16:53;100318.63;;;13.26;nan
63347;BME280;49472;49.880;8.650;2023-03-20T01:19:18;100323.00;;;13.03;nan
63347;BME280;49472;49.880;8.650;2023-03-20T01:21:43;100328.09;;;13.25;nan
63347;BME280;49472;49.880;8.650;2023-03-20T01:24:09;100320.13;;;13.40;nan
63347;BME280;49472;49.880;8.650;2023-03-20T01:26:37;100337.78;;;12.67;nan
63347;BME280;49472;49.880;8.650;2023-03-20T01:29:35;100332.25;;;12.94;nan
63347;BME280;49472;49.880;8.650;2023-03-20T01:32:00;100336.22;;;12.87;nan
63347;BME280;49472;49.880;8.650;2023-03-20T01:34:26;100333.38;;;13.13;nan
63347;BME280;49472;49.880;8.650;2023-03-20T01:36:53;100331.69;;;13.34;nan
63347;BME280;49472;49.880;8.650;2023-03-20T01:39:20;100334.00;;;12.94;nan
63347;BME280;49472;49.880;8.650;2023-03-20T01:41:50;100337.41;;;12.72;nan
63347;BME280;49472;49.880;8.650;2023-03-20T01:44:22;100332.59;;;13.01;nan
63347;BME280;49472;49.880;8.650;2023-03-20T01:46:49;100340.81;;;13.27;nan
63347;BME280;49472;49.880;8.650;2023-03-20T01:51:46;100331.16;;;13.08;nan
63347;BME280;49472;49.880;8.650;2023-03-20T01:54:17;100331.59;;;12.70;nan
63347;BME280;49472;49.880;8.650;2023-03-20T01:56:48;100324.22;;;12.88;nan
63347;BME280;49472;49.880;8.650;2023-03-20T01:59:26;100324.81;;;12.80;nan
63347;BME280;49472;49.880;8.650;2023-03-20T02:01:53;100330.66;;;12.71;nan
63347;BME280;49472;49.880;8.650;2023-03-20T02:04:24;100325.47;;;12.93;nan
63347;BME280;49472;49.880;8.650;2023-03-20T02:06:51;100329.47;;;12.86;nan
63347;BME280;49472;49.880;8.650;2023-03-20T02:09:16;100338.19;;;12.95;nan
63347;BME280;49472;49.880;8.650;2023-03-20T02:11:44;100326.66;;;12.89;nan
63347;BME280;49472;49.880;8.650;2023-03-20T02:14:11;100341.94;;;12.79;nan
63347;BME280;49472;49.880;8.650;2023-03-20T02:16:37;100337.66;;;12.57;nan
63347;BME280;49472;49.880;8.650;2023-03-20T02:19:03;100336.00;;;12.79;nan
63347;BME280;49472;49.880;8.650;2023-03-20T02:27:18;100343.25;;;12.63;nan
63347;BME280;49472;49.880;8.650;2023-03-20T02:30:16;100343.56;;;12.69;nan
63347;BME280;49472;49.880;8.650;2023-03-20T02:33:09;100339.03;;;12.84;nan
63347;BME280;49472;49.880;8.650;2023-03-20T02:35:56;100345.44;;;12.78;nan
63347;BME280;49472;49.880;8.650;2023-03-20T02:41:06;100352.81;;;12.49;nan
63347;BME280;49472;49.880;8.650;2023-03-20T02:43:54;100345.94;;;12.72;nan
63347;BME280;49472;49.880;8.650;2023-03-20T02:49:28;100346.16;;;12.58;nan
63347;BME280;49472;49.880;8.650;2023-03-20T02:52:00;100352.69;;;12.73;nan
63347;BME280;49472;49.880;8.650;2023-03-20T02:57:29;100358.72;;;12.84;nan
63347;BME280;49472;49.880;8.650;2023-03-20T03:00:25;100358.25;;;12.90;nan
63347;BME280;49472;49.880;8.650;2023-03-20T03:03:00;100362.13;;;12.62;nan
63347;BME280;49472;49.880;8.650;2023-03-20T03:05:35;100358.97;;;12.69;nan
63347;BME280;49472;49.880;8.650;2023-03-20T03:08:03;100357.69;;;12.64;nan
63347;BME280;49472;49.880;8.650;2023-03-20T03:10:33;100361.44;;;12.71;nan
63347;BME280;49472;49.880;8.650;2023-03-20T03:13:03;100355.50;;;12.70;nan
63347;BME280;49472;49.880;8.650;2023-03-20T03:15:37;100358.88;;;12.48;nan
63347;BME280;49472;49.880;8.650;2023-03-20T03:18:05;100357.72;;;12.52;nan
63347;BME280;49472;49.880;8.650;2023-03-20T03:20:38;100354.69;;;12.70;nan
63347;BME280;49472;49.880;8.650;2023-03-20T03:23:05;100355.16;;;12.75;nan
63347;BME280;49472;49.880;8.650;2023-03-20T03:25:38;100352.22;;;12.68;nan
63347;BME280;49472;49.880;8.650;2023-03-20T03:28:11;100346.47;;;12.87;nan
63347;BME280;49472;49.880;8.650;2023-03-20T03:30:41;100344.66;;;13.21;nan
63347;BME280;49472;49.880;8.650;2023-03-20T03:33:23;100346.06;;;13.25;nan
63347;BME280;49472;49.880;8.650;2023-03-20T03:35:50;100338.53;;;13.01;nan
63347;BME280;49472;49.880;8.650;2023-03-20T03:38:32;100345.78;;;12.96;nan
63347;BME280;49472;49.880;8.650;2023-03-20T03:41:19;100350.47;;;13.35;nan
63347;BME280;49472;49.880;8.650;2023-03-20T03:44:02;100356.13;;;13.29;nan
63347;BME280;49472;49.880;8.650;2023-03-20T03:46:38;100355.81;;;12.88;nan
63347;BME280;49472;49.880;8.650;2023-03-20T03:49:07;100355.53;;;13.14;nan
63347;BME280;49472;49.880;8.650;2023-03-20T03:51:37;100353.88;;;13.35;nan
63347;BME280;49472;49.880;8.650;2023-03-20T03:54:27;100357.94;;;13.38;nan
63347;BME280;49472;49.880;8.650;2023-03-20T03:56:55;100362.25;;;13.49;nan
63347;BME280;49472;49.880;8.650;2023-03-20T03:59:37;100361.13;;;13.19;nan
63347;BME280;49472;49.880;8.650;2023-03-20T04:02:04;100370.28;;;12.78;nan
63347;BME280;49472;49.880;8.650;2023-03-20T04:04:33;100373.31;;;12.83;nan
63347;BME280;49472;49.880;8.650;2023-03-20T04:06:59;100372.38;;;12.62;nan
63347;BME280;49472;49.880;8.650;2023-03-20T04:09:25;100371.56;;;12.61;nan
63347;BME280;49472;49.880;8.650;2023-03-20T04:11:51;100372.50;;;12.71;nan
63347;BME280;49472;49.880;8.650;2023-03-20T04:14:17;100369.84;;;12.73;nan
63347;BME280;49472;49.880;8.650;2023-03-20T04:16:43;100376.94;;;12.80;nan
63347;BME280;49472;49.880;8.650;2023-03-20T04:19:08;100374.25;;;12.71;nan
63347;BME280;49472;49.880;8.650;2023-03-20T04:21:33;100376.31;;;12.99;nan
63347;BME280;49472;49.880;8.650;2023-03-20T04:23:58;100375.88;;;12.72;nan
63347;BME280;49472;49.880;8.650;2023-03-20T04:26:24;100372.25;;;12.74;nan
63347;BME280;49472;49.880;8.650;2023-03-20T04:28:49;100368.03;;;13.07;nan
63347;BME280;49472;49.880;8.650;2023-03-20T04:31:15;100362.88;;;13.07;nan
63347;BME280;49472;49.880;8.650;2023-03-20T04:33:42;100372.84;;;13.00;nan
63347;BME280;49472;49.880;8.650;2023-03-20T04:36:08;100377.84;;;13.13;nan
63347;BME280;49472;49.880;8.650;2023-03-20T04:38:34;100372.06;;;12.77;nan
63347;BME280;49472;49.880;8.650;2023-03-20T04:40:59;100378.69;;;12.69;nan
63347;BME280;49472;49.880;8.650;2023-03-20T04:43:24;100378.06;;;12.99;nan
63347;BME280;49472;49.880;8.650;2023-03-20T04:45:50;100381.84;;;12.84;nan
63347;BME280;49472;49.880;8.650;2023-03-20T04:48:15;100387.75;;;13.07;nan
63347;BME280;49472;49.880;8.650;2023-03-20T04:50:41;100392.78;;;12.63;nan
63347;BME280;49472;49.880;8.650;2023-03-20T04:53:06;100395.25;;;12.76;nan
63347;BME280;49472;49.880;8.650;2023-03-20T04:55:31;100393.38;;;12.89;nan
63347;BME280;49472;49.880;8.650;2023-03-20T04:57:57;100389.63;;;13.04;nan
63347;BME280;49472;49.880;8.650;2023-03-20T05:00:22;100391.72;;;13.11;nan
63347;BME280;49472;49.880;8.650;2023-03-20T05:02:47;100391.06;;;12.75;nan
63347;BME280;49472;49.880;8.650;2023-03-20T05:05:13;100400.81;;;13.15;nan
63347;BME280;49472;49.880;8.650;2023-03-20T05:07:38;100403.16;;;12.84;nan
63347;BME280;49472;49.880;8.650;2023-03-20T05:10:04;100398.50;;;12.89;nan
63347;BME280;49472;49.880;8.650;2023-03-20T05:12:29;100407.25;;;12.64;nan
63347;BME280;49472;49.880;8.650;2023-03-20T05:14:55;100400.22;;;13.00;nan
63347;BME280;49472;49.880;8.650;2023-03-20T05:17:21;100404.81;;;12.96;nan
63347;BME280;49472;49.880;8.650;2023-03-20T05:19:47;100403.16;;;12.84;nan
63347;BME280;49472;49.880;8.650;2023-03-20T05:22:14;100412.03;;;12.69;nan
63347;BME280;49472;49.880;8.650;2023-03-20T05:24:40;100399.91;;;12.71;nan
63347;BME280;49472;49.880;8.650;2023-03-20T05:27:05;100405.28;;;12.68;nan
63347;BME280;49472;49.880;8.650;2023-03-20T05:29:30;100393.59;;;12.97;nan
63347;BME280;49472;49.880;8.650;2023-03-20T05:31:56;100384.28;;;12.85;nan
63347;BME280;49472;49.880;8.650;2023-03-20T05:34:21;100389.41;;;12.63;nan
63347;BME280;49472;49.880;8.650;2023-03-20T05:36:46;100386.72;;;12.98;nan
63347;BME280;49472;49.880;8.650;2023-03-20T05:39:12;100387.78;;;12.84;nan
63347;BME280;49472;49.880;8.650;2023-03-20T05:41:37;100388.59;;;12.85;nan
63347;BME280;49472;49.880;8.650;2023-03-20T05:44:02;100374.38;;;12.80;nan
63347;BME280;49472;49.880;8.650;2023-03-20T05:46:28;100369.09;;;13.04;nan
63347;BME280;49472;49.880;8.650;2023-03-20T05:48:53;100367.81;;;13.10;nan
63347;BME280;49472;49.880;8.650;2023-03-20T05:51:19;100368.97;;;13.06;nan
63347;BME280;49472;49.880;8.650;2023-03-20T05:53:44;100390.34;;;12.95;nan
63347;BME280;49472;49.880;8.650;2023-03-20T05:56:10;100393.84;;;12.72;nan
63347;BME280;49472;49.880;8.650;2023-03-20T05:58:35;100390.81;;;12.78;nan
63347;BME280;49472;49.880;8.650;2023-03-20T06:01:01;100392.28;;;13.25;nan
63347;BME280;49472;49.880;8.650;2023-03-20T06:03:26;100395.66;;;13.15;nan
63347;BME280;49472;49.880;8.650;2023-03-20T06:05:51;100400.63;;;12.95;nan
63347;BME280;49472;49.880;8.650;2023-03-20T06:08:17;100412.25;;;12.77;nan
63347;BME280;49472;49.880;8.650;2023-03-20T06:10:42;100404.66;;;13.09;nan
63347;BME280;49472;49.880;8.650;2023-03-20T06:13:07;100399.41;;;13.33;nan
63347;BME280;49472;49.880;8.650;2023-03-20T06:15:32;100403.16;;;13.18;nan
63347;BME280;49472;49.880;8.650;2023-03-20T06:17:58;100410.28;;;12.92;nan
63347;BME280;49472;49.880;8.650;2023-03-20T06:20:23;100408.59;;;13.24;nan
63347;BME280;49472;49.880;8.650;2023-03-20T06:22:49;100412.97;;;12.90;nan
63347;BME280;49472;49.880;8.650;2023-03-20T06:25:14;100424.75;;;12.93;nan
63347;BME280;49472;49.880;8.650;2023-03-20T06:27:40;100423.72;;;12.95;nan
63347;BME280;49472;49.880;8.650;2023-03-20T06:30:05;100421.59;;;12.78;nan
63347;BME280;49472;49.880;8.650;2023-03-20T06:32:31;100421.72;;;12.99;nan
63347;BME280;49472;49.880;8.650;2023-03-20T06:34:57;100428.03;;;12.84;nan
63347;BME280;49472;49.880;8.650;2023-03-20T06:37:22;100433.16;;;12.72;nan
63347;BME280;49472;49.880;8.650;2023-03-20T06:39:47;100429.97;;;13.02;nan
63347;BME280;49472;49.880;8.650;2023-03-20T06:42:13;100436.94;;;13.45;nan
63347;BME280;49472;49.880;8.650;2023-03-20T06:44:39;100435.84;;;12.93;nan
63347;BME280;49472;49.880;8.650;2023-03-20T06:47:04;100440.97;;;12.93;nan
63347;BME280;49472;49.880;8.650;2023-03-20T06:49:30;100436.88;;;12.68;nan
63347;BME280;49472;49.880;8.650;2023-03-20T06:51:55;100443.06;;;12.88;nan
63347;BME280;49472;49.880;8.650;2023-03-20T06:54:21;100444.72;;;13.00;nan
63347;BME280;49472;49.880;8.650;2023-03-20T06:56:46;100441.78;;;12.82;nan
63347;BME280;49472;49.880;8.650;2023-03-20T06:59:11;100439.44;;;12.68;nan
63347;BME280;49472;49.880;8.650;2023-03-20T07:01:37;100443.78;;;12.90;nan
63347;BME280;49472;49.880;8.650;2023-03-20T07:04:02;100440.47;;;12.77;nan
63347;BME280;49472;49.880;8.650;2023-03-20T07:06:28;100442.47;;;12.96;nan
63347;BME280;49472;49.880;8.650;2023-03-20T07:08:53;100442.25;;;12.99;nan
63347;BME280;49472;49.880;8.650;2023-03-20T07:11:19;100436.41;;;12.86;nan
63347;BME280;49472;49.880;8.650;2023-03-20T07:13:44;100431.88;;;12.78;nan
63347;BME280;49472;49.880;8.650;2023-03-20T07:16:09;100425.91;;;13.00;nan
63347;BME280;49472;49.880;8.650;2023-03-20T07:18:35;100436.28;;;12.87;nan
63347;BME280;49472;49.880;8.650;2023-03-20T07:21:03;100434.78;;;12.73;nan
63347;BME280;49472;49.880;8.650;2023-03-20T07:23:29;100430.72;;;12.93;nan
63347;BME280;49472;49.880;8.650;2023-03-20T07:25:56;100438.28;;;12.72;nan
63347;BME280;49472;49.880;8.650;2023-03-20T07:28:22;100436.97;;;12.67;nan
63347;BME280;49472;49.880;8.650;2023-03-20T07:30:48;100445.63;;;12.66;nan
63347;BME280;49472;49.880;8.650;2023-03-20T07:33:13;100441.66;;;13.07;nan
63347;BME280;49472;49.880;8.650;2023-03-20T07:35:38;100451.00;;;13.41;nan
63347;BME280;49472;49.880;8.650;2023-03-20T07:38:04;100447.97;;;12.80;nan
63347;BME280;49472;49.880;8.650;2023-03-20T07:40:30;100455.41;;;12.94;nan
63347;BME280;49472;49.880;8.650;2023-03-20T07:42:56;100462.72;;;12.43;nan
63347;BME280;49472;49.880;8.650;2023-03-20T07:45:22;100465.28;;;12.54;nan
63347;BME280;49472;49.880;8.650;2023-03-20T07:47:47;100457.69;;;12.41;nan
63347;BME280;49472;49.880;8.650;2023-03-20T07:50:13;100451.44;;;12.79;nan
63347;BME280;49472;49.880;8.650;2023-03-20T07:52:38;100459.59;;;12.50;nan
63347;BME280;49472;49.880;8.650;2023-03-20T07:55:04;100456.59;;;12.68;nan
63347;BME280;49472;49.880;8.650;2023-03-20T07:57:30;100460.44;;;12.85;nan
63347;BME280;49472;49.880;8.650;2023-03-20T07:59:55;100464.06;;;12.59;nan
63347;BME280;49472;49.880;8.650;2023-03-20T08:02:20;100469.19;;;12.59;nan
63347;BME280;49472;49.880;8.650;2023-03-20T08:04:46;100467.31;;;12.84;nan
63347;BME280;49472;49.880;8.650;2023-03-20T08:07:11;100471.84;;;13.48;nan
63347;BME280;49472;49.880;8.650;2023-03-20T08:09:37;100473.72;;;13.57;nan
63347;BME280;49472;49.880;8.650;2023-03-20T08:12:03;100476.06;;;13.04;nan
63347;BME280;49472;49.880;8.650;2023-03-20T08:14:29;100472.47;;;16.28;nan
63347;BME280;49472;49.880;8.650;2023-03-20T08:16:54;100470.94;;;15.48;nan
63347;BME280;49472;49.880;8.650;2023-03-20T08:19:20;100466.28;;;19.60;nan
63347;BME280;49472;49.880;8.650;2023-03-20T08:21:45;100467.03;;;15.63;nan
63347;BME280;49472;49.880;8.650;2023-03-20T08:24:11;100484.88;;;21.80;nan
63347;BME280;49472;49.880;8.650;2023-03-20T08:26:36;100455.41;;;16.64;nan
63347;BME280;49472;49.880;8.650;2023-03-20T08:29:02;61035.19;;;-142.94;100.00
63347;BME280;49472;49.880;8.650;2023-03-20T08:31:27;61035.19;;;-142.94;100.00
63347;BME280;49472;49.880;8.650;2023-03-20T08:33:54;100483.31;;;23.57;nan
63347;BME280;49472;49.880;8.650;2023-03-20T08:36:19;100472.25;;;30.79;nan
63347;BME280;49472;49.880;8.650;2023-03-20T08:38:46;61035.19;;;-142.94;100.00
63347;BME280;49472;49.880;8.650;2023-03-20T08:41:12;61035.19;;;-142.94;100.00
63347;BME280;49472;49.880;8.650;2023-03-20T08:43:37;61035.19;;;-142.94;100.00
63347;BME280;49472;49.880;8.650;2023-03-20T08:46:03;61035.19;;;-142.94;100.00
63347;BME280;49472;49.880;8.650;2023-03-20T08:48:28;61035.19;;;-142.94;100.00
63347;BME280;49472;49.880;8.650;2023-03-20T08:50:54;61035.19;;;-142.94;100.00
63347;BME280;49472;49.880;8.650;2023-03-20T08:53:19;61035.19;;;-142.94;100.00
63347;BME280;49472;49.880;8.650;2023-03-20T08:55:49;61035.19;;;-142.94;100.00
63347;BME280;49472;49.880;8.650;2023-03-20T08:58:15;61035.19;;;-142.94;100.00
63347;BME280;49472;49.880;8.650;2023-03-20T09:00:41;61035.19;;;-142.94;100.00
63347;BME280;49472;49.880;8.650;2023-03-20T09:03:12;61035.19;;;-142.94;100.00
63347;BME280;49472;49.880;8.650;2023-03-20T09:05:45;61035.19;;;-142.94;100.00
63347;BME280;49472;49.880;8.650;2023-03-20T09:08:11;61035.19;;;-142.94;100.00
63347;BME280;49472;49.880;8.650;2023-03-20T09:10:37;61035.19;;;-142.94;100.00
63347;BME280;49472;49.880;8.650;2023-03-20T09:13:03;61035.19;;;-142.94;100.00
63347;BME280;49472;49.880;8.650;2023-03-20T09:15:28;61035.19;;;-142.94;100.00
63347;BME280;49472;49.880;8.650;2023-03-20T09:17:53;61035.19;;;-142.94;100.00
63347;BME280;49472;49.880;8.650;2023-03-20T09:20:19;61035.19;;;-142.94;100.00
63347;BME280;49472;49.880;8.650;2023-03-20T09:22:45;61035.19;;;-142.94;100.00
63347;BME280;49472;49.880;8.650;2023-03-20T09:25:11;61035.19;;;-142.94;100.00
63347;BME280;49472;49.880;8.650;2023-03-20T09:27:37;61035.19;;;-142.94;100.00
63347;BME280;49472;49.880;8.650;2023-03-20T09:30:07;61035.19;;;-142.94;100.00
63347;BME280;49472;49.880;8.650;2023-03-20T09:32:34;61035.19;;;-142.94;100.00
63347;BME280;49472;49.880;8.650;2023-03-20T09:35:00;61035.19;;;-142.94;100.00
63347;BME280;49472;49.880;8.650;2023-03-20T09:37:26;61035.19;;;-142.94;100.00
63347;BME280;49472;49.880;8.650;2023-03-20T09:39:51;61035.19;;;-142.94;100.00
63347;BME280;49472;49.880;8.650;2023-03-20T09:42:31;61035.19;;;-142.94;100.00
63347;BME280;49472;49.880;8.650;2023-03-20T09:45:13;61035.19;;;-142.94;100.00
63347;BME280;49472;49.880;8.650;2023-03-20T09:53:28;61035.19;;;-142.94;100.00
63347;BME280;49472;49.880;8.650;2023-03-20T09:55:56;61035.19;;;-142.94;100.00
63347;BME280;49472;49.880;8.650;2023-03-20T09:58:33;61035.19;;;-142.94;100.00
63347;BME280;49472;49.880;8.650;2023-03-20T10:01:02;61035.19;;;-142.94;100.00
63347;BME280;49472;49.880;8.650;2023-03-20T10:06:03;61035.19;;;-142.94;100.00
63347;BME280;49472;49.880;8.650;2023-03-20T10:08:35;61035.19;;;-142.94;100.00
63347;BME280;49472;49.880;8.650;2023-03-20T10:14:08;61035.19;;;-142.94;100.00
63347;BME280;49472;49.880;8.650;2023-03-20T10:19:51;61035.19;;;-142.94;100.00
63347;BME280;49472;49.880;8.650;2023-03-20T10:22:26;61035.19;;;-142.94;100.00
63347;BME280;49472;49.880;8.650;2023-03-20T10:28:03;61035.19;;;-142.94;100.00
63347;BME280;49472;49.880;8.650;2023-03-20T10:38:42;61035.19;;;-142.94;100.00
63347;BME280;49472;49.880;8.650;2023-03-20T10:41:18;61035.19;;;-142.94;100.00
63347;BME280;49472;49.880;8.650;2023-03-20T10:43:48;61035.19;;;-142.94;100.00
63347;BME280;49472;49.880;8.650;2023-03-20T10:46:19;61035.19;;;-142.94;100.00
63347;BME280;49472;49.880;8.650;2023-03-20T10:49:00;61035.19;;;-142.94;100.00
63347;BME280;49472;49.880;8.650;2023-03-20T10:51:44;61035.19;;;-142.94;100.00
63347;BME280;49472;49.880;8.650;2023-03-20T10:54:27;61035.19;;;-142.94;100.00
63347;BME280;49472;49.880;8.650;2023-03-20T10:56:57;61035.19;;;-142.94;100.00
63347;BME280;49472;49.880;8.650;2023-03-20T10:59:26;61035.19;;;-142.94;100.00
63347;BME280;49472;49.880;8.650;2023-03-20T11:01:52;61035.19;;;-142.94;100.00
63347;BME280;49472;49.880;8.650;2023-03-20T11:04:18;61035.19;;;-142.94;100.00
63347;BME280;49472;49.880;8.650;2023-03-20T11:06:59;61035.19;;;-142.94;100.00
63347;BME280;49472;49.880;8.650;2023-03-20T11:09:27;61035.19;;;-142.94;100.00
63347;BME280;49472;49.880;8.650;2023-03-20T11:11:57;61035.19;;;-142.94;100.00
63347;BME280;49472;49.880;8.650;2023-03-20T11:14:25;61035.19;;;-142.94;100.00
63347;BME280;49472;49.880;8.650;2023-03-20T11:16:53;61035.19;;;-142.94;100.00
63347;BME280;49472;49.880;8.650;2023-03-20T11:19:20;61035.19;;;-142.94;100.00
63347;BME280;49472;49.880;8.650;2023-03-20T11:21:49;61035.19;;;-142.94;100.00
63347;BME280;49472;49.880;8.650;2023-03-20T11:24:33;61035.19;;;-142.94;100.00
63347;BME280;49472;49.880;8.650;2023-03-20T11:27:14;61035.19;;;-142.94;100.00
63347;BME280;49472;49.880;8.650;2023-03-20T11:29:42;61035.19;;;-142.94;100.00
63347;BME280;49472;49.880;8.650;2023-03-20T11:34:45;61035.19;;;-142.94;100.00
63347;BME280;49472;49.880;8.650;2023-03-20T11:37:34;61035.19;;;-142.94;100.00
63347;BME280;49472;49.880;8.650;2023-03-20T11:40:15;61035.19;;;-142.94;100.00
63347;BME280;49472;49.880;8.650;2023-03-20T11:43:07;61035.19;;;-142.94;100.00
63347;BME280;49472;49.880;8.650;2023-03-20T11:45:36;61035.19;;;-142.94;100.00
63347;BME280;49472;49.880;8.650;2023-03-20T11:48:03;61035.19;;;-142.94;100.00
63347;BME280;49472;49.880;8.650;2023-03-20T11:50:40;61035.19;;;-142.94;100.00
63347;BME280;49472;49.880;8.650;2023-03-20T11:53:25;61035.19;;;-142.94;100.00
63347;BME280;49472;49.880;8.650;2023-03-20T11:58:26;61035.19;;;-142.94;100.00
63347;BME280;49472;49.880;8.650;2023-03-20T12:00:54;61035.19;;;-142.94;100.00
63347;BME280;49472;49.880;8.650;2023-03-20T12:06:38;61035.19;;;-142.94;100.00
63347;BME280;49472;49.880;8.650;2023-03-20T12:09:34;61035.19;;;-142.94;100.00
63347;BME280;49472;49.880;8.650;2023-03-20T12:14:37;61035.19;;;-142.94;100.00
63347;BME280;49472;49.880;8.650;2023-03-20T12:19:55;61035.19;;;-142.94;100.00
63347;BME280;49472;49.880;8.650;2023-03-20T12:22:29;61035.19;;;-142.94;100.00
63347;BME280;49472;49.880;8.650;2023-03-20T12:25:20;61035.19;;;-142.94;100.00
63347;BME280;49472;49.880;8.650;2023-03-20T12:27:55;61035.19;;;-142.94;100.00
63347;BME280;49472;49.880;8.650;2023-03-20T12:30:31;61035.19;;;-142.94;100.00
63347;BME280;49472;49.880;8.650;2023-03-20T12:33:11;61035.19;;;-142.94;100.00
63347;BME280;49472;49.880;8.650;2023-03-20T12:35:43;61035.19;;;-142.94;100.00
63347;BME280;49472;49.880;8.650;2023-03-20T12:38:24;61035.19;;;-142.94;100.00
63347;BME280;49472;49.880;8.650;2023-03-20T12:40:54;61035.19;;;-142.94;100.00
63347;BME280;49472;49.880;8.650;2023-03-20T12:43:30;61035.19;;;-142.94;100.00
63347;BME280;49472;49.880;8.650;2023-03-20T12:46:08;61035.19;;;-142.94;100.00
63347;BME280;49472;49.880;8.650;2023-03-20T12:48:50;61035.19;;;-142.94;100.00
63347;BME280;49472;49.880;8.650;2023-03-20T12:54:46;61035.19;;;-142.94;100.00
63347;BME280;49472;49.880;8.650;2023-03-20T12:57:26;61035.19;;;-142.94;100.00
63347;BME280;49472;49.880;8.650;2023-03-20T13:02:54;61035.19;;;-142.94;100.00
63347;BME280;49472;49.880;8.650;2023-03-20T13:13:43;61035.19;;;-142.94;100.00
63347;BME280;49472;49.880;8.650;2023-03-20T13:19:06;61035.19;;;-142.94;100.00
63347;BME280;49472;49.880;8.650;2023-03-20T13:21:54;61035.19;;;-142.94;100.00
63347;BME280;49472;49.880;8.650;2023-03-20T13:24:56;61035.19;;;-142.94;100.00
63347;BME280;49472;49.880;8.650;2023-03-20T13:30:58;61035.19;;;-142.94;100.00
63347;BME280;49472;49.880;8.650;2023-03-20T13:38:22;61035.19;;;-142.94;100.00
63347;BME280;49472;49.880;8.650;2023-03-20T13:40:54;61035.19;;;-142.94;100.00
63347;BME280;49472;49.880;8.650;2023-03-20T13:46:02;61035.19;;;-142.94;100.00
63347;BME280;49472;49.880;8.650;2023-03-20T13:48:35;61035.19;;;-142.94;100.00
63347;BME280;49472;49.880;8.650;2023-03-20T13:51:12;61035.19;;;-142.94;100.00
63347;BME280;49472;49.880;8.650;2023-03-20T14:05:20;61035.19;;;-142.94;100.00
63347;BME280;49472;49.880;8.650;2023-03-20T14:07:48;61035.19;;;-142.94;100.00
63347;BME280;49472;49.880;8.650;2023-03-20T14:12:48;61035.19;;;-142.94;100.00
63347;BME280;49472;49.880;8.650;2023-03-20T14:15:13;61035.19;;;-142.94;100.00
63347;BME280;49472;49.880;8.650;2023-03-20T14:17:43;61035.19;;;-142.94;100.00
63347;BME280;49472;49.880;8.650;2023-03-20T14:20:37;61035.19;;;-142.94;100.00
63347;BME280;49472;49.880;8.650;2023-03-20T14:23:01;61035.19;;;-142.94;100.00
63347;BME280;49472;49.880;8.650;2023-03-20T14:25:28;61035.19;;;-142.94;100.00
63347;BME280;49472;49.880;8.650;2023-03-20T14:28:04;61035.19;;;-142.94;100.00
63347;BME280;49472;49.880;8.650;2023-03-20T14:35:36;61035.19;;;-142.94;100.00
63347;BME280;49472;49.880;8.650;2023-03-20T14:38:10;61035.19;;;-142.94;100.00
63347;BME280;49472;49.880;8.650;2023-03-20T14:41:04;61035.19;;;-142.94;100.00
63347;BME280;49472;49.880;8.650;2023-03-20T14:43:53;61035.19;;;-142.94;100.00
63347;BME280;49472;49.880;8.650;2023-03-20T14:52:31;61035.19;;;-142.94;100.00
63347;BME280;49472;49.880;8.650;2023-03-20T14:55:46;61035.19;;;-142.94;100.00
63347;BME280;49472;49.880;8.650;2023-03-20T14:58:04;61035.19;;;-142.94;100.00
63347;BME280;49472;49.880;8.650;2023-03-20T15:00:49;61035.19;;;-142.94;100.00
63347;BME280;49472;49.880;8.650;2023-03-20T15:03:16;61035.19;;;-142.94;100.00